createdAt,value
2023-03-12T00:01:38.000Z,0.45
2023-03-12T00:04:07.806Z,0.40
2023-03-12T00:06:38.626Z,0.40
2023-03-12T00:13:36.304Z,0.40
2023-03-12T00:16:07.319Z,0.50
2023-03-12T00:18:36.888Z,0.40
2023-03-12T00:21:06.903Z,0.40
2023-03-12T00:23:36.800Z,0.32
2023-03-12T00:26:07.211Z,0.40
2023-03-12T00:28:38.521Z,0.50
2023-03-12T00:34:52.934Z,0.40
2023-03-12T00:37:27.492Z,0.40
2023-03-12T00:40:02.296Z,0.43
2023-03-12T00:42:31.927Z,0.40
2023-03-12T00:45:02.988Z,0.40
2023-03-12T00:47:32.656Z,0.50
2023-03-12T00:50:02.280Z,0.40
2023-03-12T00:52:34.777Z,0.50
2023-03-12T00:55:04.390Z,0.50
2023-03-12T00:57:33.933Z,0.40
2023-03-12T01:00:06.944Z,0.43
2023-03-12T01:02:37.287Z,0.47
2023-03-12T01:05:07.668Z,0.40
2023-03-12T01:07:37.334Z,0.43
2023-03-12T01:10:07.268Z,0.50
2023-03-12T01:12:37.193Z,0.50
2023-03-12T01:15:08.961Z,0.45
2023-03-12T01:17:38.578Z,0.50
2023-03-12T01:20:09.294Z,0.50
2023-03-12T01:22:41.315Z,0.43
2023-03-12T01:25:11.136Z,0.50
2023-03-12T01:27:41.154Z,0.40
2023-03-12T01:30:13.104Z,0.40
2023-03-12T01:32:42.803Z,0.50
2023-03-12T01:35:12.532Z,0.50
2023-03-12T01:37:42.162Z,0.43
2023-03-12T01:40:15.331Z,0.40
2023-03-12T01:42:45.079Z,0.50
2023-03-12T01:45:33.202Z,0.40
2023-03-12T01:48:04.533Z,0.50
2023-03-12T01:50:34.277Z,0.50
2023-03-12T01:53:03.876Z,0.50
2023-03-12T01:55:33.616Z,0.40
2023-03-12T01:58:12.700Z,0.40
2023-03-12T02:00:42.241Z,0.47
2023-03-12T02:03:14.759Z,0.50
2023-03-12T02:05:48.269Z,0.50
2023-03-12T02:08:18.354Z,0.50
2023-03-12T02:10:48.263Z,0.43
2023-03-12T02:13:18.159Z,0.50
2023-03-12T02:15:53.447Z,0.40
2023-03-12T02:18:24.394Z,0.50
2023-03-12T02:20:58.670Z,0.50
2023-03-12T02:23:30.794Z,0.50
2023-03-12T02:26:03.901Z,0.50
2023-03-12T02:28:35.880Z,0.50
2023-03-12T02:31:07.295Z,0.50
2023-03-12T02:33:36.808Z,0.40
2023-03-12T02:36:06.884Z,0.50
2023-03-12T02:38:42.074Z,0.40
2023-03-12T02:41:18.474Z,0.50
2023-03-12T02:43:49.523Z,0.45
2023-03-12T02:46:19.233Z,0.50
2023-03-12T02:48:49.126Z,0.50
2023-03-12T02:51:18.697Z,0.50
2023-03-12T02:53:56.883Z,0.50
2023-03-12T02:56:28.990Z,0.40
2023-03-12T02:58:58.718Z,0.50
2023-03-12T03:01:28.743Z,0.50
2023-03-12T03:03:58.623Z,0.43
2023-03-12T03:06:28.257Z,0.50
2023-03-12T03:08:57.785Z,0.50
2023-03-12T03:11:28.980Z,0.50
2023-03-12T03:14:01.410Z,0.50
2023-03-12T03:16:31.230Z,0.50
2023-03-12T03:19:01.669Z,0.40
2023-03-12T03:21:35.595Z,0.40
2023-03-12T03:24:06.015Z,0.40
2023-03-12T03:26:36.915Z,0.40
2023-03-12T03:29:06.390Z,0.50
2023-03-12T03:31:35.966Z,0.45
2023-03-12T03:34:05.937Z,0.50
2023-03-12T03:36:35.531Z,0.50
2023-03-12T03:39:13.195Z,0.47
2023-03-12T03:41:44.199Z,0.40
2023-03-12T03:46:46.866Z,0.50
2023-03-12T03:51:51.739Z,0.50
2023-03-12T03:54:29.613Z,0.40
2023-03-12T03:57:00.732Z,0.40
2023-03-12T03:59:30.472Z,0.40
2023-03-12T04:02:02.245Z,0.50
2023-03-12T04:04:33.088Z,0.40
2023-03-12T04:07:02.875Z,0.40
2023-03-12T04:09:32.554Z,0.40
2023-03-12T04:12:25.891Z,0.40
2023-03-12T04:14:55.525Z,0.50
2023-03-12T04:17:25.045Z,0.30
2023-03-12T04:19:54.800Z,0.50
2023-03-12T04:22:24.289Z,0.47
2023-03-12T04:24:53.815Z,0.40
2023-03-12T04:27:24.823Z,0.40
2023-03-12T04:29:54.597Z,0.50
2023-03-12T04:32:27.983Z,0.40
2023-03-12T04:34:57.812Z,0.40
2023-03-12T04:37:30.479Z,0.48
2023-03-12T04:40:00.138Z,0.40
2023-03-12T04:42:31.404Z,0.40
2023-03-12T04:45:01.205Z,0.40
2023-03-12T04:47:32.302Z,0.50
2023-03-12T04:50:02.283Z,0.50
2023-03-12T04:52:33.679Z,0.50
2023-03-12T04:55:03.635Z,0.50
2023-03-12T04:57:34.778Z,0.40
2023-03-12T05:00:10.078Z,0.50
2023-03-12T05:02:39.819Z,0.40
2023-03-12T05:05:19.582Z,0.43
2023-03-12T05:07:50.498Z,0.50
2023-03-12T05:10:20.712Z,0.50
2023-03-12T05:12:51.766Z,0.47
2023-03-12T05:17:51.937Z,0.47
2023-03-12T05:20:21.977Z,0.50
2023-03-12T05:22:52.185Z,0.50
2023-03-12T05:25:22.123Z,0.40
2023-03-12T05:27:53.214Z,0.50
2023-03-12T05:30:26.314Z,0.47
2023-03-12T05:32:56.102Z,0.50
2023-03-12T05:35:26.044Z,0.50
2023-03-12T05:37:55.597Z,0.50
2023-03-12T05:40:26.393Z,0.50
2023-03-12T05:42:57.286Z,0.40
2023-03-12T05:45:28.893Z,0.50
2023-03-12T05:48:00.052Z,0.40
2023-03-12T05:50:31.562Z,0.40
2023-03-12T05:53:01.075Z,0.40
2023-03-12T05:55:30.888Z,0.47
2023-03-12T05:58:01.803Z,0.40
2023-03-12T06:00:31.733Z,0.47
2023-03-12T06:03:02.100Z,0.40
2023-03-12T06:05:32.133Z,0.40
2023-03-12T06:08:05.051Z,0.40
2023-03-12T06:10:44.703Z,0.45
2023-03-12T06:16:14.000Z,0.47
2023-03-12T06:18:43.577Z,0.40
2023-03-12T06:21:18.137Z,0.50
2023-03-12T06:23:49.967Z,0.40
2023-03-12T06:26:30.657Z,0.43
2023-03-12T06:29:03.365Z,0.46
2023-03-12T06:31:35.971Z,0.40
2023-03-12T06:34:07.593Z,0.50
2023-03-12T06:36:37.085Z,0.40
2023-03-12T06:39:08.552Z,0.40
2023-03-12T06:41:41.883Z,0.40
2023-03-12T06:44:11.377Z,0.40
2023-03-12T06:46:43.941Z,0.40
2023-03-12T06:49:16.730Z,0.40
2023-03-12T06:51:46.276Z,0.40
2023-03-12T06:54:15.770Z,0.40
2023-03-12T06:56:46.006Z,0.40
2023-03-12T06:59:15.528Z,0.40
2023-03-12T07:02:06.558Z,0.47
2023-03-12T07:04:36.311Z,0.40
2023-03-12T07:07:05.924Z,0.40
2023-03-12T07:09:35.579Z,0.40
2023-03-12T07:12:06.007Z,0.47
2023-03-12T07:14:35.559Z,0.40
2023-03-12T07:19:53.910Z,0.40
2023-03-12T07:22:23.469Z,0.40
2023-03-12T07:24:52.960Z,0.50
2023-03-12T07:30:14.841Z,0.43
2023-03-12T07:32:44.491Z,0.40
2023-03-12T07:35:15.471Z,0.40
2023-03-12T07:37:55.480Z,0.38
2023-03-12T07:40:24.954Z,0.50
2023-03-12T07:42:54.729Z,0.50
2023-03-12T07:45:24.601Z,0.50
2023-03-12T07:47:54.198Z,0.40
2023-03-12T07:50:28.541Z,0.40
2023-03-12T07:53:01.761Z,0.40
2023-03-12T07:55:31.368Z,0.40
2023-03-12T07:58:00.992Z,0.43
2023-03-12T08:00:31.207Z,0.50
2023-03-12T08:03:00.986Z,0.40
2023-03-12T08:05:32.015Z,0.50
2023-03-12T08:10:44.612Z,0.50
2023-03-12T08:13:14.118Z,0.40
2023-03-12T08:15:43.644Z,0.50
2023-03-12T08:18:13.144Z,0.30
2023-03-12T08:20:44.158Z,0.30
2023-03-12T08:26:05.016Z,0.40
2023-03-12T08:28:34.570Z,0.40
2023-03-12T08:31:04.060Z,0.40
2023-03-12T08:33:33.621Z,0.50
2023-03-12T08:36:04.624Z,0.40
2023-03-12T08:41:17.141Z,0.43
2023-03-12T08:44:03.721Z,0.40
2023-03-12T08:46:49.630Z,0.40
2023-03-12T08:52:13.126Z,0.40
2023-03-12T08:57:12.816Z,0.43
2023-03-12T08:59:53.952Z,0.40
2023-03-12T09:02:30.335Z,0.40
2023-03-12T09:04:59.845Z,0.40
2023-03-12T09:10:05.940Z,0.40
2023-03-12T09:12:35.603Z,0.40
2023-03-12T09:15:05.451Z,0.40
2023-03-12T09:17:34.956Z,0.40
2023-03-12T09:20:07.000Z,0.40
2023-03-12T09:22:37.139Z,0.40
2023-03-12T09:25:09.060Z,0.30
2023-03-12T09:30:14.455Z,0.40
2023-03-12T09:32:45.584Z,0.40
2023-03-12T09:35:15.798Z,0.40
2023-03-12T09:37:45.309Z,0.40
2023-03-12T09:40:18.224Z,0.40
2023-03-12T09:42:49.611Z,0.35
2023-03-12T09:45:22.819Z,0.40
2023-03-12T09:47:53.428Z,0.40
2023-03-12T09:50:26.828Z,0.32
2023-03-12T09:52:59.662Z,0.40
2023-03-12T09:55:33.869Z,0.40
2023-03-12T09:58:03.432Z,0.40
2023-03-12T10:00:35.469Z,0.40
2023-03-12T10:03:19.900Z,0.40
2023-03-12T10:06:04.039Z,0.40
2023-03-12T10:08:40.400Z,0.40
2023-03-12T10:11:13.620Z,0.50
2023-03-12T10:13:49.781Z,0.30
2023-03-12T10:16:24.222Z,0.40
2023-03-12T10:18:59.476Z,0.33
2023-03-12T10:24:04.937Z,0.40
2023-03-12T10:29:14.623Z,0.40
2023-03-12T10:31:50.156Z,0.37
2023-03-12T10:34:22.589Z,0.37
2023-03-12T10:36:52.166Z,0.30
2023-03-12T10:39:22.433Z,0.30
2023-03-12T10:41:53.065Z,0.30
2023-03-12T10:44:25.044Z,0.40
2023-03-12T10:47:00.628Z,0.43
2023-03-12T10:49:31.904Z,0.40
2023-03-12T10:52:09.222Z,0.30
2023-03-12T10:54:40.779Z,0.40
2023-03-12T10:57:10.550Z,0.30
2023-03-12T10:59:43.099Z,0.40
2023-03-12T11:02:32.214Z,0.40
2023-03-12T11:05:02.732Z,0.30
2023-03-12T11:07:33.048Z,0.35
2023-03-12T11:10:20.538Z,0.40
2023-03-12T11:12:54.354Z,0.30
2023-03-12T11:15:26.569Z,0.30
2023-03-12T11:18:19.416Z,0.40
2023-03-12T11:20:53.169Z,0.40
2023-03-12T11:23:24.239Z,0.40
2023-03-12T11:25:55.788Z,0.47
2023-03-12T11:36:39.577Z,0.30
2023-03-12T11:39:13.688Z,0.40
2023-03-12T11:41:58.064Z,0.30
2023-03-12T11:44:53.324Z,0.40
2023-03-12T11:47:34.416Z,0.40
2023-03-12T11:53:12.845Z,0.40
2023-03-12T11:58:37.252Z,0.40
2023-03-12T12:01:10.603Z,0.30
2023-03-12T12:03:51.323Z,0.30
2023-03-12T12:06:24.867Z,0.30
2023-03-12T12:09:03.786Z,0.40
2023-03-12T12:11:37.586Z,0.30
2023-03-12T12:14:13.671Z,0.40
2023-03-12T12:16:52.764Z,0.40
2023-03-12T12:19:26.654Z,0.40
2023-03-12T12:22:05.375Z,0.40
2023-03-12T12:24:49.139Z,0.30
2023-03-12T12:29:58.421Z,0.40
2023-03-12T12:35:41.252Z,0.40
2023-03-12T12:43:24.062Z,0.40
2023-03-12T12:48:25.680Z,0.40
2023-03-12T12:50:59.607Z,0.40
2023-03-12T12:53:32.410Z,0.30
2023-03-12T12:56:04.671Z,0.40
2023-03-12T12:58:46.031Z,0.40
2023-03-12T13:01:16.690Z,0.40
2023-03-12T13:09:16.106Z,0.40
2023-03-12T13:11:47.823Z,0.40
2023-03-12T13:14:40.059Z,0.40
2023-03-12T13:17:21.260Z,0.30
2023-03-12T13:22:46.695Z,0.40
2023-03-12T13:25:50.775Z,0.32
2023-03-12T13:28:37.949Z,0.40
2023-03-12T13:31:22.361Z,0.40
2023-03-12T13:33:54.349Z,0.40
2023-03-12T13:36:25.317Z,0.40
2023-03-12T13:38:56.040Z,0.40
2023-03-12T13:41:36.720Z,0.40
2023-03-12T13:44:30.422Z,0.47
2023-03-12T13:47:00.509Z,0.40
2023-03-12T13:49:36.439Z,0.40
2023-03-12T13:52:19.672Z,0.40
2023-03-12T13:57:26.934Z,0.40
2023-03-12T14:00:20.158Z,0.46
2023-03-12T14:02:51.790Z,0.40
2023-03-12T14:08:05.448Z,0.50
2023-03-12T14:10:38.575Z,0.40
2023-03-12T14:13:27.421Z,0.45
2023-03-12T14:15:58.940Z,0.40
2023-03-12T14:18:30.478Z,0.35
2023-03-12T14:21:23.407Z,0.50
2023-03-12T14:24:21.093Z,0.50
2023-03-12T14:27:07.824Z,0.40
2023-03-12T14:29:52.064Z,0.40
2023-03-12T14:32:22.975Z,0.40
2023-03-12T14:35:15.704Z,0.40
2023-03-12T14:38:08.411Z,0.40
2023-03-12T14:40:44.268Z,0.40
2023-03-12T14:43:24.545Z,0.40
2023-03-12T14:50:55.320Z,0.40
2023-03-12T14:56:29.246Z,0.40
2023-03-12T14:59:24.605Z,0.40
2023-03-12T15:04:47.267Z,0.40
2023-03-12T15:07:39.588Z,0.50
2023-03-12T15:10:18.129Z,0.40
2023-03-12T15:13:05.306Z,0.40
2023-03-12T15:15:37.775Z,0.40
2023-03-12T15:18:26.564Z,0.40
2023-03-12T15:21:08.721Z,0.35
2023-03-12T15:24:00.134Z,0.50
2023-03-12T15:26:32.121Z,0.35
2023-03-12T15:29:26.274Z,0.30
2023-03-12T15:31:56.996Z,0.35
2023-03-12T15:34:32.245Z,0.50
2023-03-12T15:37:02.497Z,0.50
2023-03-12T15:39:33.161Z,0.43
2023-03-12T15:42:03.709Z,0.50
2023-03-12T15:44:37.962Z,0.40
2023-03-12T15:47:30.840Z,0.50
2023-03-12T15:50:03.029Z,0.50
2023-03-12T15:52:34.564Z,0.40
2023-03-12T15:55:21.501Z,0.40
2023-03-12T15:57:52.016Z,0.50
2023-03-12T16:00:30.391Z,0.40
2023-03-12T16:05:52.459Z,0.40
2023-03-12T16:08:25.850Z,0.40
2023-03-12T16:10:55.512Z,0.50
2023-03-12T16:13:31.072Z,0.40
2023-03-12T16:16:18.806Z,0.40
2023-03-12T16:19:12.251Z,0.40
2023-03-12T16:24:11.642Z,0.40
2023-03-12T16:26:46.048Z,0.47
2023-03-12T16:29:38.144Z,0.47
2023-03-12T16:32:13.512Z,0.46
2023-03-12T16:34:43.168Z,0.50
2023-03-12T16:37:13.011Z,0.43
2023-03-12T16:39:46.436Z,0.50
2023-03-12T16:42:17.513Z,0.50
2023-03-12T16:45:11.385Z,0.50
2023-03-12T16:47:54.218Z,0.40
2023-03-12T16:50:35.965Z,0.40
2023-03-12T16:53:05.894Z,0.35
2023-03-12T16:55:44.785Z,0.40
2023-03-12T16:58:15.387Z,0.50
2023-03-12T17:00:45.139Z,0.40
2023-03-12T17:03:23.361Z,0.40
2023-03-12T17:06:16.966Z,0.50
2023-03-12T17:08:47.437Z,0.50
2023-03-12T17:11:20.798Z,0.40
2023-03-12T17:13:52.723Z,0.40
2023-03-12T17:16:43.229Z,0.40
2023-03-12T17:19:15.987Z,0.40
2023-03-12T17:21:46.250Z,0.30
2023-03-12T17:24:15.837Z,0.50
2023-03-12T17:26:45.498Z,0.40
2023-03-12T17:29:15.015Z,0.40
2023-03-12T17:31:44.575Z,0.40
2023-03-12T17:34:14.141Z,0.30
2023-03-12T17:36:45.010Z,0.40
2023-03-12T17:39:27.167Z,0.40
2023-03-12T17:41:57.021Z,0.40
2023-03-12T17:44:32.646Z,0.40
2023-03-12T17:47:02.582Z,0.40
2023-03-12T17:49:33.509Z,0.40
2023-03-12T17:52:05.382Z,0.40
2023-03-12T17:54:35.365Z,0.50
2023-03-12T17:57:05.014Z,0.40
2023-03-12T17:59:34.668Z,0.50
2023-03-12T18:02:04.637Z,0.43
2023-03-12T18:04:36.741Z,0.40
2023-03-12T18:07:11.188Z,0.40
2023-03-12T18:09:40.844Z,0.50
2023-03-12T18:12:14.060Z,0.50
2023-03-12T18:15:09.071Z,0.40
2023-03-12T18:17:38.665Z,0.50
2023-03-12T18:20:37.790Z,0.50
2023-03-12T18:23:27.683Z,0.47
2023-03-12T18:26:00.493Z,0.50
2023-03-12T18:28:32.389Z,0.40
2023-03-12T18:31:04.650Z,0.40
2023-03-12T18:33:38.546Z,0.40
2023-03-12T18:36:09.788Z,0.50
2023-03-12T18:38:40.935Z,0.40
2023-03-12T18:41:12.372Z,0.40
2023-03-12T18:43:50.573Z,0.40
2023-03-12T18:46:25.036Z,0.50
2023-03-12T18:51:30.128Z,0.40
2023-03-12T18:54:01.279Z,0.50
2023-03-12T18:56:31.365Z,0.45
2023-03-12T18:59:00.985Z,0.50
2023-03-12T19:01:30.610Z,0.40
2023-03-12T19:04:00.298Z,0.40
2023-03-12T19:09:15.073Z,0.40
2023-03-12T19:11:44.709Z,0.40
2023-03-12T19:14:14.337Z,0.40
2023-03-12T19:16:45.087Z,0.40
2023-03-12T19:19:14.678Z,0.40
2023-03-12T19:21:44.200Z,0.40
2023-03-12T19:24:15.091Z,0.40
2023-03-12T19:26:44.670Z,0.40
2023-03-12T19:29:15.180Z,0.40
2023-03-12T19:31:44.935Z,0.40
2023-03-12T19:34:14.820Z,0.40
2023-03-12T19:36:44.397Z,0.37
2023-03-12T19:39:22.315Z,0.40
2023-03-12T19:41:52.092Z,0.40
2023-03-12T19:44:21.785Z,0.40
2023-03-12T19:46:51.447Z,0.40
2023-03-12T19:49:21.539Z,0.40
2023-03-12T19:51:51.561Z,0.40
2023-03-12T19:54:25.268Z,0.33
2023-03-12T19:56:54.784Z,0.40
2023-03-12T19:59:24.321Z,0.40
2023-03-12T20:01:54.158Z,0.40
2023-03-12T20:04:23.816Z,0.30
2023-03-12T20:06:53.389Z,0.33
2023-03-12T20:09:22.896Z,0.40
2023-03-12T20:11:53.825Z,0.40
2023-03-12T20:14:23.432Z,0.30
2023-03-12T20:16:53.263Z,0.30
2023-03-12T20:19:22.783Z,0.30
2023-03-12T20:21:52.318Z,0.30
2023-03-12T20:24:22.088Z,0.30
2023-03-12T20:26:51.930Z,0.30
2023-03-12T20:29:23.331Z,0.30
2023-03-12T20:31:53.165Z,0.30
2023-03-12T20:34:22.843Z,0.30
2023-03-12T20:36:52.585Z,0.30
2023-03-12T20:39:22.478Z,0.30
2023-03-12T20:41:52.333Z,0.30
2023-03-12T20:44:23.687Z,0.30
2023-03-12T20:46:53.376Z,0.30
2023-03-12T20:51:53.685Z,0.30
2023-03-12T20:54:23.355Z,0.30
2023-03-12T20:56:53.034Z,0.30
2023-03-12T20:59:24.205Z,0.30
2023-03-12T21:01:54.035Z,0.30
2023-03-12T21:04:23.524Z,0.30
2023-03-12T21:06:53.127Z,0.30
2023-03-12T21:09:23.408Z,0.30
2023-03-12T21:12:04.473Z,0.40
2023-03-12T21:14:51.852Z,0.32
2023-03-12T21:17:21.403Z,0.30
2023-03-12T21:19:50.944Z,0.30
2023-03-12T21:22:20.568Z,0.30
2023-03-12T21:27:38.307Z,0.30
2023-03-12T21:30:31.523Z,0.30
2023-03-12T21:33:02.340Z,0.37
2023-03-12T21:35:31.961Z,0.30
2023-03-12T21:40:31.994Z,0.30
2023-03-12T21:43:01.546Z,0.30
2023-03-12T21:45:32.496Z,0.23
2023-03-12T21:48:02.011Z,0.30
2023-03-12T21:53:06.880Z,0.30
2023-03-12T21:55:44.048Z,0.30
2023-03-12T21:58:13.756Z,0.30
2023-03-12T22:00:44.728Z,0.27
2023-03-12T22:03:14.505Z,0.30
2023-03-12T22:05:44.178Z,0.30
2023-03-12T22:08:13.685Z,0.30
2023-03-12T22:10:45.163Z,0.30
2023-03-12T22:13:14.862Z,0.30
2023-03-12T22:16:08.442Z,0.30
2023-03-12T22:18:39.686Z,0.30
2023-03-12T22:21:09.270Z,0.30
2023-03-12T22:23:39.143Z,0.30
2023-03-12T22:26:09.364Z,0.30
2023-03-12T22:28:38.945Z,0.30
2023-03-12T22:31:10.613Z,0.30
2023-03-12T22:33:40.184Z,0.30
2023-03-12T22:36:11.180Z,0.30
2023-03-12T22:38:40.859Z,0.30
2023-03-12T22:41:14.380Z,0.28
2023-03-12T22:44:05.317Z,0.20
2023-03-12T22:49:46.692Z,0.30
2023-03-12T22:54:51.776Z,0.30
2023-03-12T22:57:21.321Z,0.30
2023-03-12T22:59:50.812Z,0.30
2023-03-12T23:02:20.365Z,0.30
2023-03-12T23:04:51.271Z,0.30
2023-03-12T23:07:41.601Z,0.30
2023-03-12T23:10:11.828Z,0.30
2023-03-12T23:13:02.414Z,0.30
2023-03-12T23:15:40.574Z,0.30
2023-03-12T23:21:05.320Z,0.30
2023-03-12T23:26:14.104Z,0.20
2023-03-12T23:28:43.662Z,0.20
2023-03-12T23:31:13.204Z,0.30
2023-03-12T23:33:42.860Z,0.20
2023-03-12T23:36:15.201Z,0.25
2023-03-12T23:39:05.970Z,0.40
2023-03-12T23:41:35.401Z,0.30
2023-03-12T23:44:04.841Z,0.28
2023-03-12T23:49:08.066Z,0.30
2023-03-12T23:52:04.354Z,0.30
2023-03-12T23:54:33.885Z,0.30
2023-03-12T23:57:03.675Z,0.30
2023-03-12T23:59:33.208Z,0.30
